sensor_id;sensor_type;location;lat;lon;timestamp;pressure;altitude;pressure_sealevel;temperature;humidity
69351;BME280;57106;51.446;-2.606;2023-04-07T00:00:27;102000.95;;;8.17;69.10
69351;BME280;57106;51.446;-2.606;2023-04-07T00:02:53;102003.18;;;8.06;69.81
69351;BME280;57106;51.446;-2.606;2023-04-07T00:07:43;101999.79;;;8.08;69.66
69351;BME280;57106;51.446;-2.606;2023-04-07T00:10:10;101993.86;;;8.10;69.56
69351;BME280;57106;51.446;-2.606;2023-04-07T00:12:35;101994.55;;;8.09;69.25
69351;BME280;57106;51.446;-2.606;2023-04-07T00:15:01;101997.87;;;7.91;70.08
69351;BME280;57106;51.446;-2.606;2023-04-07T00:17:26;102002.29;;;7.93;69.93
69351;BME280;57106;51.446;-2.606;2023-04-07T00:19:52;102002.65;;;7.77;70.59
69351;BME280;57106;51.446;-2.606;2023-04-07T00:22:17;102002.74;;;7.83;70.36
69351;BME280;57106;51.446;-2.606;2023-04-07T00:24:43;102002.01;;;7.75;70.45
69351;BME280;57106;51.446;-2.606;2023-04-07T00:27:09;102000.25;;;7.68;71.00
69351;BME280;57106;51.446;-2.606;2023-04-07T00:29:34;101998.76;;;7.90;69.95
69351;BME280;57106;51.446;-2.606;2023-04-07T00:32:01;102002.58;;;7.85;70.33
69351;BME280;57106;51.446;-2.606;2023-04-07T00:34:26;102005.46;;;7.85;70.21
69351;BME280;57106;51.446;-2.606;2023-04-07T00:36:51;102004.62;;;7.85;69.61
69351;BME280;57106;51.446;-2.606;2023-04-07T00:39:17;102005.92;;;7.75;70.16
69351;BME280;57106;51.446;-2.606;2023-04-07T00:41:43;102004.15;;;7.75;70.17
69351;BME280;57106;51.446;-2.606;2023-04-07T00:44:08;102012.72;;;7.63;70.96
69351;BME280;57106;51.446;-2.606;2023-04-07T00:46:34;102006.80;;;7.69;70.69
69351;BME280;57106;51.446;-2.606;2023-04-07T00:49:00;102006.84;;;7.57;70.95
69351;BME280;57106;51.446;-2.606;2023-04-07T00:51:25;102006.63;;;7.62;71.24
69351;BME280;57106;51.446;-2.606;2023-04-07T00:53:51;102004.19;;;7.73;70.46
69351;BME280;57106;51.446;-2.606;2023-04-07T00:56:17;102001.94;;;7.75;70.09
69351;BME280;57106;51.446;-2.606;2023-04-07T00:58:42;102002.66;;;7.65;70.48
69351;BME280;57106;51.446;-2.606;2023-04-07T01:01:14;102003.32;;;7.52;70.67
69351;BME280;57106;51.446;-2.606;2023-04-07T01:03:38;102003.17;;;7.52;70.51
69351;BME280;57106;51.446;-2.606;2023-04-07T01:06:01;102005.29;;;7.47;70.61
69351;BME280;57106;51.446;-2.606;2023-04-07T01:08:36;102005.70;;;7.40;70.44
69351;BME280;57106;51.446;-2.606;2023-04-07T01:10:55;102008.39;;;7.46;70.38
69351;BME280;57106;51.446;-2.606;2023-04-07T01:13:22;102004.60;;;7.37;71.10
69351;BME280;57106;51.446;-2.606;2023-04-07T01:15:45;102007.06;;;7.35;71.10
69351;BME280;57106;51.446;-2.606;2023-04-07T01:18:12;102007.33;;;7.32;71.48
69351;BME280;57106;51.446;-2.606;2023-04-07T01:20:34;102007.09;;;7.32;71.20
69351;BME280;57106;51.446;-2.606;2023-04-07T01:23:04;102005.73;;;7.41;70.42
69351;BME280;57106;51.446;-2.606;2023-04-07T01:25:40;102005.75;;;7.40;70.06
69351;BME280;57106;51.446;-2.606;2023-04-07T01:28:03;102001.49;;;7.19;70.76
69351;BME280;57106;51.446;-2.606;2023-04-07T01:30:16;102000.94;;;7.12;71.28
69351;BME280;57106;51.446;-2.606;2023-04-07T01:32:51;102000.82;;;7.16;71.00
69351;BME280;57106;51.446;-2.606;2023-04-07T01:35:11;102001.23;;;7.09;71.21
69351;BME280;57106;51.446;-2.606;2023-04-07T01:37:34;102001.95;;;7.17;70.92
69351;BME280;57106;51.446;-2.606;2023-04-07T01:40:00;102002.35;;;7.00;71.09
69351;BME280;57106;51.446;-2.606;2023-04-07T01:42:25;102003.21;;;7.03;71.13
69351;BME280;57106;51.446;-2.606;2023-04-07T01:44:51;102004.06;;;6.93;71.23
69351;BME280;57106;51.446;-2.606;2023-04-07T01:47:17;102003.79;;;6.88;71.67
69351;BME280;57106;51.446;-2.606;2023-04-07T01:49:43;102002.81;;;6.87;71.75
69351;BME280;57106;51.446;-2.606;2023-04-07T01:52:08;102002.23;;;6.83;71.77
69351;BME280;57106;51.446;-2.606;2023-04-07T01:54:33;102003.10;;;6.88;71.74
69351;BME280;57106;51.446;-2.606;2023-04-07T01:56:59;102002.55;;;6.92;71.62
69351;BME280;57106;51.446;-2.606;2023-04-07T01:59:24;102002.39;;;6.87;71.87
69351;BME280;57106;51.446;-2.606;2023-04-07T02:01:50;102000.13;;;6.93;71.26
69351;BME280;57106;51.446;-2.606;2023-04-07T02:04:27;101997.08;;;6.90;71.11
69351;BME280;57106;51.446;-2.606;2023-04-07T02:06:49;101999.06;;;6.87;71.40
69351;BME280;57106;51.446;-2.606;2023-04-07T02:09:10;101997.17;;;6.59;72.49
69351;BME280;57106;51.446;-2.606;2023-04-07T02:11:35;101994.91;;;6.62;72.24
69351;BME280;57106;51.446;-2.606;2023-04-07T02:14:00;101993.35;;;6.64;72.32
69351;BME280;57106;51.446;-2.606;2023-04-07T02:16:25;101995.52;;;6.66;71.74
69351;BME280;57106;51.446;-2.606;2023-04-07T02:18:56;101996.03;;;6.60;72.18
69351;BME280;57106;51.446;-2.606;2023-04-07T02:21:17;101995.66;;;6.60;71.80
69351;BME280;57106;51.446;-2.606;2023-04-07T02:23:41;101990.92;;;6.55;72.57
69351;BME280;57106;51.446;-2.606;2023-04-07T02:26:09;101987.74;;;6.41;72.46
69351;BME280;57106;51.446;-2.606;2023-04-07T02:28:33;101986.77;;;6.48;72.64
69351;BME280;57106;51.446;-2.606;2023-04-07T02:30:59;101987.96;;;6.40;72.81
69351;BME280;57106;51.446;-2.606;2023-04-07T02:33:24;101988.25;;;6.39;72.59
69351;BME280;57106;51.446;-2.606;2023-04-07T02:35:50;101990.67;;;6.43;72.55
69351;BME280;57106;51.446;-2.606;2023-04-07T02:38:16;101993.52;;;6.43;73.09
69351;BME280;57106;51.446;-2.606;2023-04-07T02:40:41;101994.10;;;6.35;73.21
69351;BME280;57106;51.446;-2.606;2023-04-07T02:43:07;101998.19;;;6.41;72.74
69351;BME280;57106;51.446;-2.606;2023-04-07T02:45:33;101997.77;;;6.39;72.53
69351;BME280;57106;51.446;-2.606;2023-04-07T02:47:59;102001.17;;;6.44;72.21
69351;BME280;57106;51.446;-2.606;2023-04-07T02:50:24;101999.79;;;6.33;72.12
69351;BME280;57106;51.446;-2.606;2023-04-07T02:52:52;102000.49;;;6.31;72.66
69351;BME280;57106;51.446;-2.606;2023-04-07T02:55:16;102008.30;;;6.07;73.86
69351;BME280;57106;51.446;-2.606;2023-04-07T02:57:41;102008.90;;;6.08;73.91
69351;BME280;57106;51.446;-2.606;2023-04-07T03:00:11;102007.64;;;6.20;73.21
69351;BME280;57106;51.446;-2.606;2023-04-07T03:02:33;102006.94;;;6.15;72.86
69351;BME280;57106;51.446;-2.606;2023-04-07T03:04:59;102008.33;;;5.97;73.91
69351;BME280;57106;51.446;-2.606;2023-04-07T03:07:24;102000.44;;;6.24;72.86
69351;BME280;57106;51.446;-2.606;2023-04-07T03:09:50;102003.11;;;6.14;73.03
69351;BME280;57106;51.446;-2.606;2023-04-07T03:12:16;102004.08;;;6.16;72.97
69351;BME280;57106;51.446;-2.606;2023-04-07T03:14:41;102004.51;;;6.14;73.04
69351;BME280;57106;51.446;-2.606;2023-04-07T03:17:07;102000.57;;;6.03;73.78
69351;BME280;57106;51.446;-2.606;2023-04-07T03:19:33;101999.28;;;6.07;74.05
69351;BME280;57106;51.446;-2.606;2023-04-07T03:21:59;102003.48;;;5.90;74.30
69351;BME280;57106;51.446;-2.606;2023-04-07T03:24:24;102006.84;;;6.10;73.81
69351;BME280;57106;51.446;-2.606;2023-04-07T03:26:50;102006.37;;;6.05;73.75
69351;BME280;57106;51.446;-2.606;2023-04-07T03:29:16;102005.56;;;6.15;73.50
69351;BME280;57106;51.446;-2.606;2023-04-07T03:31:41;102003.97;;;6.08;73.75
69351;BME280;57106;51.446;-2.606;2023-04-07T03:34:07;102003.79;;;5.81;75.04
69351;BME280;57106;51.446;-2.606;2023-04-07T03:36:33;102007.12;;;5.85;75.11
69351;BME280;57106;51.446;-2.606;2023-04-07T03:38:59;102008.01;;;5.89;74.55
69351;BME280;57106;51.446;-2.606;2023-04-07T03:41:24;102009.49;;;5.99;74.34
69351;BME280;57106;51.446;-2.606;2023-04-07T03:43:50;102012.86;;;6.14;73.72
69351;BME280;57106;51.446;-2.606;2023-04-07T03:46:17;102013.84;;;6.10;73.13
69351;BME280;57106;51.446;-2.606;2023-04-07T03:48:41;102013.04;;;6.04;73.51
69351;BME280;57106;51.446;-2.606;2023-04-07T03:51:07;102011.21;;;5.89;73.98
69351;BME280;57106;51.446;-2.606;2023-04-07T03:53:33;102011.53;;;5.90;73.29
69351;BME280;57106;51.446;-2.606;2023-04-07T03:55:59;102010.57;;;5.63;74.33
69351;BME280;57106;51.446;-2.606;2023-04-07T03:58:29;102014.16;;;5.85;74.27
69351;BME280;57106;51.446;-2.606;2023-04-07T04:00:50;102015.21;;;5.78;73.90
69351;BME280;57106;51.446;-2.606;2023-04-07T04:03:16;102014.18;;;5.82;74.36
69351;BME280;57106;51.446;-2.606;2023-04-07T04:05:41;102017.04;;;5.83;74.54
69351;BME280;57106;51.446;-2.606;2023-04-07T04:08:07;102020.41;;;5.78;74.38
69351;BME280;57106;51.446;-2.606;2023-04-07T04:10:35;102015.59;;;5.59;75.05
69351;BME280;57106;51.446;-2.606;2023-04-07T04:12:59;102012.16;;;5.55;74.92
69351;BME280;57106;51.446;-2.606;2023-04-07T04:15:24;102013.38;;;5.34;75.67
69351;BME280;57106;51.446;-2.606;2023-04-07T04:17:50;102012.79;;;5.34;76.01
69351;BME280;57106;51.446;-2.606;2023-04-07T04:20:16;102012.31;;;5.46;75.57
69351;BME280;57106;51.446;-2.606;2023-04-07T04:22:41;102013.81;;;5.79;74.59
69351;BME280;57106;51.446;-2.606;2023-04-07T04:25:08;102014.97;;;5.72;73.81
69351;BME280;57106;51.446;-2.606;2023-04-07T04:27:33;102015.71;;;5.59;74.63
69351;BME280;57106;51.446;-2.606;2023-04-07T04:29:59;102018.36;;;5.62;75.21
69351;BME280;57106;51.446;-2.606;2023-04-07T04:32:28;102022.31;;;5.75;75.05
69351;BME280;57106;51.446;-2.606;2023-04-07T04:34:51;102022.61;;;5.49;75.62
69351;BME280;57106;51.446;-2.606;2023-04-07T04:37:18;102023.13;;;5.45;76.24
69351;BME280;57106;51.446;-2.606;2023-04-07T04:39:47;102024.04;;;5.57;75.69
69351;BME280;57106;51.446;-2.606;2023-04-07T04:42:07;102024.19;;;5.71;75.04
69351;BME280;57106;51.446;-2.606;2023-04-07T04:44:33;102027.53;;;5.52;75.90
69351;BME280;57106;51.446;-2.606;2023-04-07T04:46:59;102031.26;;;5.52;76.09
69351;BME280;57106;51.446;-2.606;2023-04-07T04:49:24;102034.09;;;5.71;75.38
69351;BME280;57106;51.446;-2.606;2023-04-07T04:51:50;102035.17;;;5.69;74.74
69351;BME280;57106;51.446;-2.606;2023-04-07T04:54:18;102038.72;;;5.64;74.83
69351;BME280;57106;51.446;-2.606;2023-04-07T04:56:42;102039.69;;;5.54;75.06
69351;BME280;57106;51.446;-2.606;2023-04-07T04:59:10;102037.47;;;5.55;75.00
69351;BME280;57106;51.446;-2.606;2023-04-07T05:01:33;102039.56;;;5.56;74.82
69351;BME280;57106;51.446;-2.606;2023-04-07T05:03:59;102040.87;;;5.40;75.38
69351;BME280;57106;51.446;-2.606;2023-04-07T05:06:25;102041.22;;;5.39;75.57
69351;BME280;57106;51.446;-2.606;2023-04-07T05:08:50;102043.67;;;5.36;75.11
69351;BME280;57106;51.446;-2.606;2023-04-07T05:11:16;102049.34;;;5.44;74.83
69351;BME280;57106;51.446;-2.606;2023-04-07T05:13:42;102049.40;;;5.37;74.89
69351;BME280;57106;51.446;-2.606;2023-04-07T05:16:08;102051.52;;;5.32;74.91
69351;BME280;57106;51.446;-2.606;2023-04-07T05:18:33;102055.61;;;5.29;74.62
69351;BME280;57106;51.446;-2.606;2023-04-07T05:20:59;102058.30;;;5.26;74.32
69351;BME280;57106;51.446;-2.606;2023-04-07T05:23:25;102056.45;;;5.20;74.72
69351;BME280;57106;51.446;-2.606;2023-04-07T05:25:50;102054.84;;;5.10;75.20
69351;BME280;57106;51.446;-2.606;2023-04-07T05:28:16;102060.17;;;5.11;75.21
69351;BME280;57106;51.446;-2.606;2023-04-07T05:30:42;102067.40;;;5.20;74.88
69351;BME280;57106;51.446;-2.606;2023-04-07T05:33:08;102069.30;;;5.20;74.91
69351;BME280;57106;51.446;-2.606;2023-04-07T05:35:34;102068.37;;;5.09;75.40
69351;BME280;57106;51.446;-2.606;2023-04-07T05:38:00;102069.13;;;5.26;74.79
69351;BME280;57106;51.446;-2.606;2023-04-07T05:40:25;102069.72;;;5.26;74.64
69351;BME280;57106;51.446;-2.606;2023-04-07T05:42:51;102069.90;;;5.32;75.04
69351;BME280;57106;51.446;-2.606;2023-04-07T05:45:17;102071.33;;;5.31;75.23
69351;BME280;57106;51.446;-2.606;2023-04-07T05:47:42;102069.85;;;5.24;75.43
69351;BME280;57106;51.446;-2.606;2023-04-07T05:50:09;102076.54;;;5.45;74.65
69351;BME280;57106;51.446;-2.606;2023-04-07T05:52:34;102075.90;;;5.42;75.07
69351;BME280;57106;51.446;-2.606;2023-04-07T05:55:00;102076.80;;;5.27;75.43
69351;BME280;57106;51.446;-2.606;2023-04-07T05:57:25;102079.33;;;5.45;74.75
69351;BME280;57106;51.446;-2.606;2023-04-07T05:59:51;102079.13;;;5.35;74.75
69351;BME280;57106;51.446;-2.606;2023-04-07T06:02:17;102083.91;;;5.30;75.08
69351;BME280;57106;51.446;-2.606;2023-04-07T06:04:43;102085.34;;;5.15;75.72
69351;BME280;57106;51.446;-2.606;2023-04-07T06:07:14;102088.89;;;5.27;75.51
69351;BME280;57106;51.446;-2.606;2023-04-07T06:09:34;102093.98;;;5.44;75.06
69351;BME280;57106;51.446;-2.606;2023-04-07T06:12:00;102094.71;;;5.40;75.15
69351;BME280;57106;51.446;-2.606;2023-04-07T06:14:26;102095.72;;;5.31;75.61
69351;BME280;57106;51.446;-2.606;2023-04-07T06:16:51;102098.26;;;5.50;74.66
69351;BME280;57106;51.446;-2.606;2023-04-07T06:19:17;102094.92;;;5.61;73.98
69351;BME280;57106;51.446;-2.606;2023-04-07T06:21:43;102095.58;;;5.64;73.68
69351;BME280;57106;51.446;-2.606;2023-04-07T06:24:14;102096.57;;;5.60;73.86
69351;BME280;57106;51.446;-2.606;2023-04-07T06:26:34;102099.08;;;5.51;74.62
69351;BME280;57106;51.446;-2.606;2023-04-07T06:29:00;102100.25;;;5.78;73.86
69351;BME280;57106;51.446;-2.606;2023-04-07T06:31:27;102103.99;;;5.75;73.99
69351;BME280;57106;51.446;-2.606;2023-04-07T06:33:52;102109.20;;;5.91;73.64
69351;BME280;57106;51.446;-2.606;2023-04-07T06:36:17;102110.39;;;5.98;73.73
69351;BME280;57106;51.446;-2.606;2023-04-07T06:38:43;102114.87;;;6.08;73.69
69351;BME280;57106;51.446;-2.606;2023-04-07T06:41:09;102116.44;;;6.01;74.18
69351;BME280;57106;51.446;-2.606;2023-04-07T06:43:34;102117.95;;;6.22;73.46
69351;BME280;57106;51.446;-2.606;2023-04-07T06:46:01;102121.41;;;6.30;73.47
69351;BME280;57106;51.446;-2.606;2023-04-07T06:48:26;102122.71;;;6.50;72.59
69351;BME280;57106;51.446;-2.606;2023-04-07T06:50:52;102124.88;;;6.41;72.62
69351;BME280;57106;51.446;-2.606;2023-04-07T06:53:17;102127.59;;;6.54;72.58
69351;BME280;57106;51.446;-2.606;2023-04-07T06:55:43;102129.63;;;6.49;72.83
69351;BME280;57106;51.446;-2.606;2023-04-07T06:58:09;102135.78;;;6.46;73.16
69351;BME280;57106;51.446;-2.606;2023-04-07T07:00:35;102142.31;;;6.64;72.81
69351;BME280;57106;51.446;-2.606;2023-04-07T07:03:01;102144.99;;;6.80;72.94
69351;BME280;57106;51.446;-2.606;2023-04-07T07:05:26;102142.15;;;6.91;72.19
69351;BME280;57106;51.446;-2.606;2023-04-07T07:07:52;102141.00;;;6.93;72.30
69351;BME280;57106;51.446;-2.606;2023-04-07T07:10:19;102133.95;;;7.07;72.10
69351;BME280;57106;51.446;-2.606;2023-04-07T07:12:43;102138.93;;;6.99;72.28
69351;BME280;57106;51.446;-2.606;2023-04-07T07:15:09;102132.64;;;7.14;72.14
69351;BME280;57106;51.446;-2.606;2023-04-07T07:17:35;102137.13;;;7.30;71.29
69351;BME280;57106;51.446;-2.606;2023-04-07T07:20:01;102136.79;;;7.42;71.01
69351;BME280;57106;51.446;-2.606;2023-04-07T07:22:26;102134.39;;;7.09;72.38
69351;BME280;57106;51.446;-2.606;2023-04-07T07:24:52;102136.27;;;7.32;72.12
69351;BME280;57106;51.446;-2.606;2023-04-07T07:27:17;102132.22;;;7.43;71.96
69351;BME280;57106;51.446;-2.606;2023-04-07T07:29:43;102136.00;;;7.61;72.04
69351;BME280;57106;51.446;-2.606;2023-04-07T07:32:08;102138.12;;;7.54;72.40
69351;BME280;57106;51.446;-2.606;2023-04-07T07:34:34;102143.35;;;7.60;72.69
69351;BME280;57106;51.446;-2.606;2023-04-07T07:37:00;102140.59;;;7.71;72.30
69351;BME280;57106;51.446;-2.606;2023-04-07T07:39:26;102137.76;;;7.72;72.35
69351;BME280;57106;51.446;-2.606;2023-04-07T07:41:52;102133.18;;;7.89;71.33
69351;BME280;57106;51.446;-2.606;2023-04-07T07:44:17;102137.47;;;7.82;71.54
69351;BME280;57106;51.446;-2.606;2023-04-07T07:46:43;102136.45;;;7.75;71.79
69351;BME280;57106;51.446;-2.606;2023-04-07T07:49:08;102138.22;;;7.65;72.73
69351;BME280;57106;51.446;-2.606;2023-04-07T07:51:34;102135.09;;;7.82;72.20
69351;BME280;57106;51.446;-2.606;2023-04-07T07:54:00;102139.80;;;8.09;71.78
69351;BME280;57106;51.446;-2.606;2023-04-07T07:56:25;102134.01;;;7.97;71.33
69351;BME280;57106;51.446;-2.606;2023-04-07T07:58:51;102140.54;;;8.36;70.89
69351;BME280;57106;51.446;-2.606;2023-04-07T08:01:17;102144.88;;;8.55;69.87
69351;BME280;57106;51.446;-2.606;2023-04-07T08:03:42;102148.01;;;8.70;68.99
69351;BME280;57106;51.446;-2.606;2023-04-07T08:06:08;102150.52;;;8.64;67.68
69351;BME280;57106;51.446;-2.606;2023-04-07T08:08:33;102151.74;;;8.74;67.61
69351;BME280;57106;51.446;-2.606;2023-04-07T08:11:00;102153.16;;;8.90;67.40
69351;BME280;57106;51.446;-2.606;2023-04-07T08:13:24;102153.46;;;8.87;66.86
69351;BME280;57106;51.446;-2.606;2023-04-07T08:15:50;102151.17;;;9.06;66.10
69351;BME280;57106;51.446;-2.606;2023-04-07T08:18:16;102148.33;;;9.17;65.82
69351;BME280;57106;51.446;-2.606;2023-04-07T08:20:41;102148.72;;;9.15;65.06
69351;BME280;57106;51.446;-2.606;2023-04-07T08:23:07;102151.67;;;9.25;64.78
69351;BME280;57106;51.446;-2.606;2023-04-07T08:25:34;102150.56;;;9.17;65.29
69351;BME280;57106;51.446;-2.606;2023-04-07T08:27:58;102144.55;;;9.24;65.59
69351;BME280;57106;51.446;-2.606;2023-04-07T08:30:24;102144.82;;;9.28;64.07
69351;BME280;57106;51.446;-2.606;2023-04-07T08:32:49;102151.60;;;9.30;64.22
69351;BME280;57106;51.446;-2.606;2023-04-07T08:35:20;102154.20;;;9.11;64.69
69351;BME280;57106;51.446;-2.606;2023-04-07T08:37:41;102160.52;;;9.15;66.28
69351;BME280;57106;51.446;-2.606;2023-04-07T08:40:07;102159.47;;;9.12;63.91
69351;BME280;57106;51.446;-2.606;2023-04-07T08:42:33;102160.16;;;9.43;63.55
69351;BME280;57106;51.446;-2.606;2023-04-07T08:45:02;102166.69;;;9.78;62.09
69351;BME280;57106;51.446;-2.606;2023-04-07T08:47:30;102167.60;;;9.45;60.87
69351;BME280;57106;51.446;-2.606;2023-04-07T08:49:51;102169.43;;;9.44;61.33
69351;BME280;57106;51.446;-2.606;2023-04-07T08:52:14;102176.57;;;9.38;61.12
69351;BME280;57106;51.446;-2.606;2023-04-07T08:54:43;102180.65;;;9.44;61.15
69351;BME280;57106;51.446;-2.606;2023-04-07T08:57:07;102174.34;;;9.20;61.58
69351;BME280;57106;51.446;-2.606;2023-04-07T08:59:31;102174.84;;;9.35;60.84
69351;BME280;57106;51.446;-2.606;2023-04-07T09:01:57;102175.87;;;9.43;61.33
69351;BME280;57106;51.446;-2.606;2023-04-07T09:04:23;102174.58;;;9.65;60.61
69351;BME280;57106;51.446;-2.606;2023-04-07T09:06:50;102172.64;;;9.65;60.88
69351;BME280;57106;51.446;-2.606;2023-04-07T09:09:13;102170.02;;;9.74;60.90
69351;BME280;57106;51.446;-2.606;2023-04-07T09:11:39;102172.66;;;9.79;60.65
69351;BME280;57106;51.446;-2.606;2023-04-07T09:14:06;102169.15;;;9.91;59.47
69351;BME280;57106;51.446;-2.606;2023-04-07T09:18:58;102168.92;;;9.64;61.36
69351;BME280;57106;51.446;-2.606;2023-04-07T13:45:41;102055.75;;;13.95;35.04
69351;BME280;57106;51.446;-2.606;2023-04-07T13:50:36;102058.33;;;14.14;34.24
69351;BME280;57106;51.446;-2.606;2023-04-07T13:52:57;102054.14;;;14.20;34.24
69351;BME280;57106;51.446;-2.606;2023-04-07T13:55:23;102049.27;;;13.89;34.45
69351;BME280;57106;51.446;-2.606;2023-04-07T13:57:54;102049.71;;;13.87;34.22
69351;BME280;57106;51.446;-2.606;2023-04-07T14:00:16;102045.20;;;14.16;33.88
69351;BME280;57106;51.446;-2.606;2023-04-07T14:02:39;102042.01;;;14.42;33.62
69351;BME280;57106;51.446;-2.606;2023-04-07T14:05:05;102040.03;;;14.52;33.01
69351;BME280;57106;51.446;-2.606;2023-04-07T14:07:31;102037.88;;;14.61;32.51
69351;BME280;57106;51.446;-2.606;2023-04-07T14:09:56;102040.15;;;14.47;33.25
69351;BME280;57106;51.446;-2.606;2023-04-07T14:12:21;102039.00;;;14.68;33.35
69351;BME280;57106;51.446;-2.606;2023-04-07T14:14:46;102045.43;;;14.19;33.07
69351;BME280;57106;51.446;-2.606;2023-04-07T14:17:12;102038.86;;;13.99;33.49
69351;BME280;57106;51.446;-2.606;2023-04-07T14:19:37;102040.00;;;13.98;34.13
69351;BME280;57106;51.446;-2.606;2023-04-07T14:22:03;102042.68;;;13.86;35.23
69351;BME280;57106;51.446;-2.606;2023-04-07T14:24:29;102038.64;;;13.84;35.16
69351;BME280;57106;51.446;-2.606;2023-04-07T14:26:54;102040.99;;;13.85;35.10
69351;BME280;57106;51.446;-2.606;2023-04-07T14:29:19;102039.09;;;14.26;33.78
69351;BME280;57106;51.446;-2.606;2023-04-07T14:31:45;102038.41;;;14.40;33.23
69351;BME280;57106;51.446;-2.606;2023-04-07T14:34:10;102038.13;;;14.11;32.94
69351;BME280;57106;51.446;-2.606;2023-04-07T14:36:35;102037.67;;;14.41;32.36
69351;BME280;57106;51.446;-2.606;2023-04-07T14:39:01;102036.01;;;14.31;32.77
69351;BME280;57106;51.446;-2.606;2023-04-07T14:41:27;102037.13;;;14.07;33.44
69351;BME280;57106;51.446;-2.606;2023-04-07T14:43:52;102033.54;;;14.08;33.58
69351;BME280;57106;51.446;-2.606;2023-04-07T14:46:17;102035.87;;;14.12;33.97
69351;BME280;57106;51.446;-2.606;2023-04-07T14:48:44;102030.14;;;14.10;33.85
69351;BME280;57106;51.446;-2.606;2023-04-07T14:53:35;102019.27;;;14.46;31.57
69351;BME280;57106;51.446;-2.606;2023-04-07T14:58:27;102027.32;;;14.74;31.38
69351;BME280;57106;51.446;-2.606;2023-04-07T15:00:51;102025.26;;;14.61;32.49
69351;BME280;57106;51.446;-2.606;2023-04-07T15:03:16;102026.33;;;14.83;32.12
69351;BME280;57106;51.446;-2.606;2023-04-07T15:05:42;102028.06;;;15.03;32.09
69351;BME280;57106;51.446;-2.606;2023-04-07T15:08:13;102033.70;;;14.54;31.23
69351;BME280;57106;51.446;-2.606;2023-04-07T15:15:24;102026.92;;;15.42;30.82
69351;BME280;57106;51.446;-2.606;2023-04-07T15:20:15;102022.86;;;15.30;31.45
69351;BME280;57106;51.446;-2.606;2023-04-07T15:22:41;102032.72;;;15.08;31.93
69351;BME280;57106;51.446;-2.606;2023-04-07T15:29:57;102023.36;;;14.92;31.95
69351;BME280;57106;51.446;-2.606;2023-04-07T15:42:04;102010.37;;;15.12;31.54
69351;BME280;57106;51.446;-2.606;2023-04-07T16:37:49;102019.85;;;14.73;32.25
69351;BME280;57106;51.446;-2.606;2023-04-07T16:47:31;102017.13;;;15.42;33.28
69351;BME280;57106;51.446;-2.606;2023-04-07T16:54:47;102024.33;;;14.94;34.89
69351;BME280;57106;51.446;-2.606;2023-04-07T16:57:12;102019.39;;;14.79;34.59
69351;BME280;57106;51.446;-2.606;2023-04-07T16:59:37;102023.21;;;15.00;34.63
69351;BME280;57106;51.446;-2.606;2023-04-07T17:02:07;102022.61;;;14.91;35.33
69351;BME280;57106;51.446;-2.606;2023-04-07T17:04:28;102025.60;;;15.01;35.82
69351;BME280;57106;51.446;-2.606;2023-04-07T17:06:54;102024.06;;;14.69;35.64
69351;BME280;57106;51.446;-2.606;2023-04-07T17:09:19;102026.96;;;14.88;34.60
69351;BME280;57106;51.446;-2.606;2023-04-07T17:11:44;102029.69;;;14.55;35.11
69351;BME280;57106;51.446;-2.606;2023-04-07T17:14:10;102033.97;;;14.64;34.52
69351;BME280;57106;51.446;-2.606;2023-04-07T17:16:35;102039.42;;;14.47;34.54
69351;BME280;57106;51.446;-2.606;2023-04-07T17:19:01;102035.56;;;14.63;33.98
69351;BME280;57106;51.446;-2.606;2023-04-07T17:21:28;102037.05;;;14.53;33.98
69351;BME280;57106;51.446;-2.606;2023-04-07T17:23:52;102039.58;;;14.21;34.60
69351;BME280;57106;51.446;-2.606;2023-04-07T17:26:17;102039.45;;;14.38;34.50
69351;BME280;57106;51.446;-2.606;2023-04-07T17:28:44;102040.89;;;14.29;34.54
69351;BME280;57106;51.446;-2.606;2023-04-07T17:31:11;102038.29;;;14.26;35.23
69351;BME280;57106;51.446;-2.606;2023-04-07T17:33:34;102037.77;;;14.26;35.31
69351;BME280;57106;51.446;-2.606;2023-04-07T17:36:01;102041.03;;;14.25;35.02
69351;BME280;57106;51.446;-2.606;2023-04-07T17:38:26;102040.31;;;14.41;34.99
69351;BME280;57106;51.446;-2.606;2023-04-07T17:40:55;102042.43;;;14.11;34.44
69351;BME280;57106;51.446;-2.606;2023-04-07T17:43:16;102042.02;;;14.10;34.86
69351;BME280;57106;51.446;-2.606;2023-04-07T17:45:41;102042.99;;;14.23;33.65
69351;BME280;57106;51.446;-2.606;2023-04-07T17:48:07;102043.56;;;14.45;33.57
69351;BME280;57106;51.446;-2.606;2023-04-07T17:50:32;102040.71;;;14.48;33.09
69351;BME280;57106;51.446;-2.606;2023-04-07T17:53:01;102043.66;;;14.35;33.98
69351;BME280;57106;51.446;-2.606;2023-04-07T17:55:24;102046.08;;;14.48;33.93
69351;BME280;57106;51.446;-2.606;2023-04-07T17:57:49;102047.60;;;14.16;34.30
69351;BME280;57106;51.446;-2.606;2023-04-07T18:00:14;102048.26;;;14.28;33.84
69351;BME280;57106;51.446;-2.606;2023-04-07T18:02:39;102053.91;;;14.35;33.81
69351;BME280;57106;51.446;-2.606;2023-04-07T18:05:05;102057.21;;;14.30;34.16
69351;BME280;57106;51.446;-2.606;2023-04-07T18:07:30;102058.92;;;14.36;34.74
69351;BME280;57106;51.446;-2.606;2023-04-07T18:09:56;102061.92;;;14.10;35.41
69351;BME280;57106;51.446;-2.606;2023-04-07T18:12:22;102061.44;;;14.22;34.92
69351;BME280;57106;51.446;-2.606;2023-04-07T18:14:47;102066.62;;;14.36;35.50
69351;BME280;57106;51.446;-2.606;2023-04-07T18:17:12;102065.84;;;14.30;35.35
69351;BME280;57106;51.446;-2.606;2023-04-07T18:19:38;102067.70;;;14.27;35.66
69351;BME280;57106;51.446;-2.606;2023-04-07T18:22:03;102070.35;;;14.05;36.15
69351;BME280;57106;51.446;-2.606;2023-04-07T18:24:29;102067.53;;;13.78;36.51
69351;BME280;57106;51.446;-2.606;2023-04-07T18:26:55;102070.36;;;13.89;36.78
69351;BME280;57106;51.446;-2.606;2023-04-07T18:29:21;102070.13;;;13.82;36.62
69351;BME280;57106;51.446;-2.606;2023-04-07T18:31:56;102073.52;;;13.83;36.91
69351;BME280;57106;51.446;-2.606;2023-04-07T18:34:11;102077.68;;;13.73;37.40
69351;BME280;57106;51.446;-2.606;2023-04-07T18:36:37;102080.78;;;13.76;37.09
69351;BME280;57106;51.446;-2.606;2023-04-07T18:39:02;102078.15;;;13.57;37.70
69351;BME280;57106;51.446;-2.606;2023-04-07T18:41:28;102082.46;;;13.68;36.94